createdAt,value
2017-12-24T00:01:43.656Z,14.43
2017-12-24T00:04:12.608Z,14.80
2017-12-24T00:06:40.725Z,15.50
2017-12-24T00:09:08.828Z,15.93
2017-12-24T00:11:38.352Z,15.73
2017-12-24T00:14:07.427Z,14.20
2017-12-24T00:16:35.499Z,15.20
2017-12-24T00:19:03.741Z,11.73
2017-12-24T00:21:32.582Z,14.30
2017-12-24T00:24:00.760Z,13.00
2017-12-24T00:26:28.878Z,13.20
2017-12-24T00:28:57.055Z,12.30
2017-12-24T00:31:25.164Z,12.07
2017-12-24T00:33:53.243Z,11.97
2017-12-24T00:36:21.408Z,12.70
2017-12-24T00:38:49.483Z,11.03
2017-12-24T00:41:17.634Z,12.47
2017-12-24T00:43:45.933Z,12.40
2017-12-24T00:46:14.101Z,10.80
2017-12-24T00:48:42.193Z,11.50
2017-12-24T00:51:11.811Z,10.83
2017-12-24T00:53:39.894Z,10.70
2017-12-24T00:56:08.158Z,10.97
2017-12-24T00:58:36.678Z,10.10
2017-12-24T01:01:05.563Z,11.20
2017-12-24T01:03:34.496Z,10.37
2017-12-24T01:06:02.576Z,10.80
2017-12-24T01:08:30.684Z,12.80
2017-12-24T01:10:59.573Z,12.60
2017-12-24T01:13:27.686Z,11.97
2017-12-24T01:15:55.913Z,12.73
2017-12-24T01:18:24.032Z,13.37
2017-12-24T01:20:52.987Z,12.10
2017-12-24T01:23:21.072Z,11.80
2017-12-24T01:25:49.204Z,12.83
2017-12-24T01:28:17.351Z,12.57
2017-12-24T01:30:45.439Z,12.33
2017-12-24T01:33:13.566Z,10.97
2017-12-24T01:35:41.708Z,10.90
2017-12-24T01:38:09.828Z,11.13
2017-12-24T01:40:37.916Z,9.00
2017-12-24T01:43:06.091Z,9.30
2017-12-24T01:45:34.208Z,8.13
2017-12-24T01:48:02.556Z,9.03
2017-12-24T01:50:30.659Z,8.30
2017-12-24T01:52:58.807Z,7.70
2017-12-24T01:55:26.887Z,8.87
2017-12-24T01:57:55.042Z,7.87
2017-12-24T02:00:24.112Z,7.93
2017-12-24T02:02:53.015Z,8.20
2017-12-24T02:05:21.176Z,8.60
2017-12-24T02:07:50.104Z,9.20
2017-12-24T02:10:18.231Z,9.20
2017-12-24T02:12:47.758Z,9.50
2017-12-24T02:15:16.843Z,8.87
2017-12-24T02:17:45.574Z,10.03
2017-12-24T02:20:13.841Z,9.53
2017-12-24T02:22:42.336Z,11.03
2017-12-24T02:25:10.672Z,10.50
2017-12-24T02:27:38.787Z,9.20
2017-12-24T02:30:06.875Z,10.30
2017-12-24T02:32:34.984Z,10.17
2017-12-24T02:35:03.103Z,9.60
2017-12-24T02:37:31.235Z,9.63
2017-12-24T02:39:59.791Z,8.90
2017-12-24T02:42:27.875Z,9.30
2017-12-24T02:44:56.001Z,9.40
2017-12-24T02:47:24.072Z,8.03
2017-12-24T02:49:52.179Z,9.40
2017-12-24T02:52:21.057Z,10.17
2017-12-24T02:54:49.255Z,7.93
2017-12-24T02:57:17.331Z,9.13
2017-12-24T02:59:47.260Z,8.80
2017-12-24T03:02:16.261Z,8.53
2017-12-24T03:04:45.427Z,9.27
2017-12-24T03:07:14.339Z,8.37
2017-12-24T03:09:42.407Z,7.60
2017-12-24T03:12:11.327Z,8.10
2017-12-24T03:14:39.601Z,9.43
2017-12-24T03:17:08.376Z,8.60
2017-12-24T03:19:38.032Z,8.43
2017-12-24T03:22:06.115Z,7.90
2017-12-24T03:24:34.255Z,9.77
2017-12-24T03:27:02.372Z,8.20
2017-12-24T03:29:31.564Z,7.73
2017-12-24T03:31:59.673Z,8.90
2017-12-24T03:34:27.861Z,8.10
2017-12-24T03:36:56.018Z,7.97
2017-12-24T03:39:24.111Z,7.57
2017-12-24T03:41:53.287Z,7.20
2017-12-24T03:44:21.384Z,7.33
2017-12-24T03:46:49.495Z,6.73
2017-12-24T03:49:17.570Z,8.50
2017-12-24T03:51:46.296Z,7.80
2017-12-24T03:54:14.554Z,6.83
2017-12-24T03:56:43.142Z,6.50
2017-12-24T03:59:12.062Z,7.07
2017-12-24T04:01:40.262Z,6.90
2017-12-24T04:04:08.335Z,6.60
2017-12-24T04:06:36.495Z,6.97
2017-12-24T04:09:04.823Z,6.43
2017-12-24T04:11:33.051Z,6.77
2017-12-24T04:14:01.580Z,6.00
2017-12-24T04:16:30.452Z,5.97
2017-12-24T04:18:58.538Z,5.47
2017-12-24T04:21:27.459Z,6.00
2017-12-24T04:23:55.579Z,5.70
2017-12-24T04:26:23.640Z,6.30
2017-12-24T04:28:52.251Z,6.40
2017-12-24T04:31:21.978Z,6.07
2017-12-24T04:33:50.872Z,6.13
2017-12-24T04:36:19.000Z,5.70
2017-12-24T04:38:47.083Z,6.40
2017-12-24T04:41:15.206Z,7.07
2017-12-24T04:43:43.278Z,6.00
2017-12-24T04:46:11.403Z,7.30
2017-12-24T04:48:39.535Z,6.30
2017-12-24T04:51:07.604Z,6.20
2017-12-24T04:53:36.083Z,6.47
2017-12-24T04:56:04.381Z,6.30
2017-12-24T04:58:32.872Z,5.93
2017-12-24T05:01:00.963Z,6.70
2017-12-24T05:03:29.116Z,7.07
2017-12-24T05:05:58.403Z,6.00
2017-12-24T05:08:26.483Z,6.97
2017-12-24T05:10:55.482Z,6.00
2017-12-24T05:13:23.687Z,6.60
2017-12-24T05:15:52.452Z,5.93
2017-12-24T05:18:21.688Z,6.87
2017-12-24T05:20:50.580Z,6.70
2017-12-24T05:23:18.863Z,6.20
2017-12-24T05:25:47.650Z,7.20
2017-12-24T05:28:16.416Z,6.47
2017-12-24T05:30:45.188Z,6.07
2017-12-24T05:33:13.492Z,6.23
2017-12-24T05:35:41.566Z,6.53
2017-12-24T05:38:10.476Z,6.73
2017-12-24T05:40:38.620Z,6.77
2017-12-24T05:43:06.747Z,6.00
2017-12-24T05:45:34.875Z,7.50
2017-12-24T05:48:03.096Z,6.70
2017-12-24T05:50:31.238Z,5.87
2017-12-24T05:53:00.179Z,6.80
2017-12-24T05:55:28.252Z,6.57
2017-12-24T05:57:56.398Z,6.80
2017-12-24T06:00:25.535Z,7.00
2017-12-24T06:02:55.514Z,6.90
2017-12-24T06:05:23.724Z,6.13
2017-12-24T06:07:51.832Z,6.27
2017-12-24T06:10:20.696Z,6.27
2017-12-24T06:12:50.240Z,5.57
2017-12-24T06:15:18.330Z,6.23
2017-12-24T06:17:46.421Z,5.43
2017-12-24T06:20:15.688Z,6.10
2017-12-24T06:22:43.757Z,5.70
2017-12-24T06:25:11.916Z,5.23
2017-12-24T06:27:40.775Z,4.90
2017-12-24T06:30:08.846Z,4.90
2017-12-24T06:32:37.187Z,4.53
2017-12-24T06:35:05.349Z,3.70
2017-12-24T06:37:33.484Z,3.40
2017-12-24T06:40:01.589Z,3.90
2017-12-24T06:42:29.712Z,3.33
2017-12-24T06:44:57.821Z,2.90
2017-12-24T06:47:26.809Z,3.23
2017-12-24T06:49:54.938Z,3.17
2017-12-24T06:52:24.544Z,2.90
2017-12-24T06:54:52.731Z,3.03
2017-12-24T06:57:20.827Z,3.70
2017-12-24T06:59:48.944Z,2.93
2017-12-24T07:02:17.080Z,3.20
2017-12-24T07:04:45.958Z,3.47
2017-12-24T07:07:14.084Z,3.20
2017-12-24T07:09:42.216Z,3.40
2017-12-24T07:12:10.343Z,3.30
2017-12-24T07:14:38.479Z,3.80
2017-12-24T07:17:07.481Z,3.47
2017-12-24T07:19:36.139Z,3.23
2017-12-24T07:22:04.235Z,3.97
2017-12-24T07:24:32.415Z,3.33
2017-12-24T07:27:00.476Z,3.80
2017-12-24T07:29:29.390Z,3.47
2017-12-24T07:31:57.554Z,3.30
2017-12-24T07:34:25.656Z,4.20
2017-12-24T07:36:53.809Z,4.00
2017-12-24T07:39:21.948Z,3.90
2017-12-24T07:41:50.875Z,4.10
2017-12-24T07:44:19.035Z,4.00
2017-12-24T07:46:47.951Z,5.17
2017-12-24T07:49:16.159Z,4.60
2017-12-24T07:51:45.200Z,3.83
2017-12-24T07:54:13.300Z,4.50
2017-12-24T07:56:41.487Z,4.03
2017-12-24T07:59:09.680Z,4.20
2017-12-24T08:01:37.753Z,4.53
2017-12-24T08:04:06.339Z,4.03
2017-12-24T08:06:34.399Z,3.83
2017-12-24T08:09:02.539Z,3.93
2017-12-24T08:11:31.378Z,4.20
2017-12-24T08:13:59.843Z,4.53
2017-12-24T08:16:27.926Z,3.50
2017-12-24T08:18:56.082Z,3.30
2017-12-24T08:21:24.235Z,4.23
2017-12-24T08:23:52.488Z,3.33
2017-12-24T08:26:20.594Z,3.33
2017-12-24T08:28:48.851Z,2.70
2017-12-24T08:31:17.013Z,2.70
2017-12-24T08:33:45.092Z,2.90
2017-12-24T08:36:15.414Z,4.40
2017-12-24T08:38:43.491Z,6.97
2017-12-24T08:41:11.583Z,2.80
2017-12-24T08:43:39.779Z,2.60
2017-12-24T08:46:07.866Z,2.47
2017-12-24T08:48:35.983Z,2.80
2017-12-24T08:51:04.083Z,2.57
2017-12-24T08:53:32.190Z,2.50
2017-12-24T08:56:00.344Z,2.70
2017-12-24T08:58:28.460Z,2.93
2017-12-24T09:00:56.555Z,2.60
2017-12-24T09:03:24.665Z,2.73
2017-12-24T09:05:52.773Z,2.57
2017-12-24T09:08:20.849Z,2.90
2017-12-24T09:10:49.007Z,2.47
2017-12-24T09:13:17.101Z,2.87
2017-12-24T09:15:45.195Z,2.80
2017-12-24T09:18:13.276Z,2.90
2017-12-24T09:20:41.431Z,3.77
2017-12-24T09:23:09.531Z,3.40
2017-12-24T09:25:37.607Z,3.70
2017-12-24T09:28:05.719Z,4.77
2017-12-24T09:30:33.826Z,4.63
2017-12-24T09:33:01.942Z,4.60
2017-12-24T09:35:30.046Z,4.57
2017-12-24T09:37:58.183Z,7.87
2017-12-24T09:40:26.311Z,7.13
2017-12-24T09:42:54.477Z,4.20
2017-12-24T09:45:22.623Z,4.30
2017-12-24T09:47:50.796Z,3.73
2017-12-24T09:50:19.640Z,3.43
2017-12-24T09:52:47.768Z,3.17
2017-12-24T09:55:16.690Z,3.83
2017-12-24T09:57:44.924Z,2.83
2017-12-24T10:00:13.872Z,3.30
2017-12-24T10:02:42.062Z,3.17
2017-12-24T10:05:10.166Z,3.13
2017-12-24T10:07:38.995Z,3.13
2017-12-24T10:10:07.115Z,2.70
2017-12-24T10:12:35.203Z,2.90
2017-12-24T10:15:04.122Z,3.37
2017-12-24T10:17:32.348Z,2.83
2017-12-24T10:20:00.426Z,2.53
2017-12-24T10:22:28.536Z,3.80
2017-12-24T10:24:56.621Z,3.77
2017-12-24T10:27:24.754Z,4.50
2017-12-24T10:29:53.603Z,5.83
2017-12-24T10:32:21.712Z,4.17
2017-12-24T10:34:50.660Z,4.50
2017-12-24T10:37:18.773Z,5.50
2017-12-24T10:39:46.884Z,5.20
2017-12-24T10:42:14.983Z,5.20
2017-12-24T10:44:43.095Z,4.83
2017-12-24T10:47:12.032Z,4.67
2017-12-24T10:49:40.164Z,4.40
2017-12-24T10:52:09.003Z,5.03
2017-12-24T10:54:37.132Z,4.90
2017-12-24T10:57:05.473Z,4.30
2017-12-24T10:59:33.610Z,5.73
2017-12-24T11:02:01.760Z,4.50
2017-12-24T11:04:29.860Z,3.50
2017-12-24T11:06:58.015Z,3.57
2017-12-24T11:09:26.128Z,4.20
2017-12-24T11:11:54.245Z,3.13
2017-12-24T11:14:23.083Z,3.90
2017-12-24T11:16:51.293Z,7.63
2017-12-24T11:19:19.378Z,3.13
2017-12-24T11:21:48.297Z,3.40
2017-12-24T11:24:16.400Z,3.03
2017-12-24T11:26:44.547Z,3.00
2017-12-24T11:29:12.680Z,2.73
2017-12-24T11:31:40.818Z,2.60
2017-12-24T11:34:08.987Z,2.67
2017-12-24T11:36:37.146Z,3.10
2017-12-24T11:39:05.237Z,3.30
2017-12-24T11:41:33.316Z,3.27
2017-12-24T11:44:01.440Z,3.00
2017-12-24T11:46:31.220Z,4.40
2017-12-24T11:48:59.319Z,3.30
2017-12-24T11:51:28.585Z,2.80
2017-12-24T11:53:56.695Z,3.40
2017-12-24T11:56:24.806Z,2.90
2017-12-24T11:58:52.962Z,2.87
2017-12-24T12:01:22.235Z,3.47
2017-12-24T12:03:50.337Z,2.93
2017-12-24T12:06:18.478Z,3.20
2017-12-24T12:08:47.422Z,2.73
2017-12-24T12:11:15.533Z,3.17
2017-12-24T12:13:43.659Z,3.10
2017-12-24T12:16:12.546Z,3.60
2017-12-24T12:18:40.666Z,3.03
2017-12-24T12:21:09.588Z,3.00
2017-12-24T12:23:37.820Z,3.30
2017-12-24T12:26:05.885Z,2.93
2017-12-24T12:28:34.239Z,3.00
2017-12-24T12:31:03.039Z,2.80
2017-12-24T12:33:31.202Z,2.67
2017-12-24T12:35:59.339Z,2.80
2017-12-24T12:38:27.439Z,3.30
2017-12-24T12:40:55.568Z,3.50
2017-12-24T12:43:24.672Z,3.17
2017-12-24T12:45:53.629Z,3.50
2017-12-24T12:48:22.170Z,3.60
2017-12-24T12:50:50.245Z,3.43
2017-12-24T12:53:18.381Z,3.20
2017-12-24T12:55:46.449Z,3.10
2017-12-24T12:58:14.584Z,3.60
2017-12-24T13:00:43.524Z,3.13
2017-12-24T13:03:11.599Z,4.10
2017-12-24T13:05:40.444Z,3.70
2017-12-24T13:08:08.587Z,3.00
2017-12-24T13:10:36.685Z,2.73
2017-12-24T13:13:04.959Z,3.30
2017-12-24T13:15:33.033Z,3.37
2017-12-24T13:18:01.151Z,3.67
2017-12-24T13:20:29.244Z,3.70
2017-12-24T13:22:59.231Z,3.00
2017-12-24T13:25:27.397Z,3.50
2017-12-24T13:27:55.483Z,4.50
2017-12-24T13:30:23.642Z,4.07
2017-12-24T13:32:51.717Z,3.43
2017-12-24T13:35:19.855Z,3.73
2017-12-24T13:37:47.996Z,4.33
2017-12-24T13:40:18.868Z,3.80
2017-12-24T13:42:47.034Z,3.70
2017-12-24T13:45:15.123Z,3.30
2017-12-24T13:47:44.153Z,3.17
2017-12-24T13:50:12.357Z,2.93
2017-12-24T13:52:40.708Z,3.37
2017-12-24T13:55:09.550Z,3.80
2017-12-24T13:57:38.067Z,3.60
2017-12-24T14:00:06.200Z,3.33
2017-12-24T14:02:35.223Z,3.20
2017-12-24T14:05:03.336Z,3.50
2017-12-24T14:07:31.579Z,3.30
2017-12-24T14:09:59.839Z,3.50
2017-12-24T14:12:27.913Z,3.83
2017-12-24T14:14:56.029Z,3.90
2017-12-24T14:17:24.144Z,3.63
2017-12-24T14:19:52.230Z,3.10
2017-12-24T14:22:20.375Z,3.20
2017-12-24T14:24:48.538Z,3.60
2017-12-24T14:27:16.683Z,3.90
2017-12-24T14:29:46.620Z,3.53
2017-12-24T14:32:14.690Z,3.50
2017-12-24T14:34:43.641Z,4.03
2017-12-24T14:37:13.491Z,4.00
2017-12-24T14:39:41.575Z,3.83
2017-12-24T14:42:09.645Z,4.10
2017-12-24T14:44:37.761Z,4.17
2017-12-24T14:47:06.791Z,4.53
2017-12-24T14:49:35.639Z,5.07
2017-12-24T14:52:04.663Z,4.90
2017-12-24T14:54:33.689Z,5.13
2017-12-24T14:57:02.527Z,4.80
2017-12-24T14:59:30.612Z,4.90
2017-12-24T15:01:58.687Z,4.47
2017-12-24T15:04:26.773Z,5.57
2017-12-24T15:06:55.650Z,5.60
2017-12-24T15:09:23.725Z,4.90
2017-12-24T15:11:51.903Z,6.10
2017-12-24T15:14:20.000Z,5.30
2017-12-24T15:16:48.090Z,4.80
2017-12-24T15:19:16.168Z,4.83
2017-12-24T15:21:44.362Z,9.50
2017-12-24T15:24:12.475Z,7.77
2017-12-24T15:26:41.452Z,4.97
2017-12-24T15:29:09.532Z,4.80
2017-12-24T15:31:40.899Z,4.70
2017-12-24T15:34:09.768Z,5.27
2017-12-24T15:36:38.016Z,5.10
2017-12-24T15:39:06.243Z,5.60
2017-12-24T15:41:34.433Z,5.23
2017-12-24T15:44:02.558Z,4.93
2017-12-24T15:46:32.735Z,5.40
2017-12-24T15:49:00.910Z,5.07
2017-12-24T15:51:29.089Z,5.17
2017-12-24T15:53:57.468Z,4.80
2017-12-24T15:56:26.632Z,4.83
2017-12-24T15:58:54.785Z,4.60
2017-12-24T16:01:23.981Z,4.83
2017-12-24T16:03:52.160Z,5.00
2017-12-24T16:06:20.290Z,5.40
2017-12-24T16:08:48.394Z,6.30
2017-12-24T16:11:16.586Z,6.27
2017-12-24T16:13:45.490Z,5.43
2017-12-24T16:16:13.678Z,5.50
2017-12-24T16:18:41.785Z,6.00
2017-12-24T16:21:09.895Z,5.80
2017-12-24T16:23:38.071Z,5.67
2017-12-24T16:26:06.948Z,5.60
2017-12-24T16:28:35.285Z,6.80
2017-12-24T16:31:03.433Z,6.67
2017-12-24T16:33:32.466Z,7.50
2017-12-24T16:36:00.567Z,6.37
2017-12-24T16:38:28.847Z,7.53
2017-12-24T16:40:57.046Z,6.07
2017-12-24T16:43:25.946Z,6.40
2017-12-24T16:45:54.104Z,6.27
2017-12-24T16:48:22.992Z,7.37
2017-12-24T16:50:51.835Z,6.60
2017-12-24T16:53:20.012Z,5.83
2017-12-24T16:55:48.473Z,5.43
2017-12-24T16:58:17.786Z,5.40
2017-12-24T17:00:45.931Z,5.20
2017-12-24T17:03:14.016Z,5.03
2017-12-24T17:05:42.179Z,5.00
2017-12-24T17:08:10.335Z,4.90
2017-12-24T17:10:39.278Z,5.87
2017-12-24T17:13:07.391Z,5.10
2017-12-24T17:15:35.457Z,5.57
2017-12-24T17:18:03.612Z,6.27
2017-12-24T17:20:31.765Z,6.03
2017-12-24T17:22:59.926Z,5.67
2017-12-24T17:25:28.310Z,5.47
2017-12-24T17:27:56.439Z,5.63
2017-12-24T17:30:25.535Z,6.13
2017-12-24T17:32:55.332Z,7.10
2017-12-24T17:35:23.453Z,7.23
2017-12-24T17:37:51.530Z,7.23
2017-12-24T17:40:19.857Z,7.30
2017-12-24T17:42:48.089Z,6.50
2017-12-24T17:45:16.182Z,7.60
2017-12-24T17:47:44.377Z,8.27
2017-12-24T17:50:12.917Z,6.80
2017-12-24T17:52:41.303Z,6.67
2017-12-24T17:55:10.075Z,7.40
2017-12-24T17:57:38.203Z,8.30
2017-12-24T18:00:06.299Z,8.30
2017-12-24T18:02:34.391Z,8.00
2017-12-24T18:05:02.563Z,8.73
2017-12-24T18:07:30.643Z,8.90
2017-12-24T18:09:58.715Z,8.70
2017-12-24T18:12:26.842Z,8.30
2017-12-24T18:14:54.919Z,9.30
2017-12-24T18:17:23.082Z,8.63
2017-12-24T18:19:51.180Z,9.20
2017-12-24T18:22:19.299Z,9.20
2017-12-24T18:24:47.381Z,9.27
2017-12-24T18:27:15.480Z,8.77
2017-12-24T18:29:43.576Z,10.07
2017-12-24T18:32:11.739Z,8.70
2017-12-24T18:34:39.928Z,9.17
2017-12-24T18:37:11.726Z,8.70
2017-12-24T18:39:40.000Z,8.57
2017-12-24T18:42:09.312Z,8.50
2017-12-24T18:44:37.394Z,8.30
2017-12-24T18:47:05.507Z,11.97
2017-12-24T18:49:33.609Z,8.17
2017-12-24T18:52:03.688Z,7.70
2017-12-24T18:54:32.715Z,7.77
2017-12-24T18:57:00.798Z,8.40
2017-12-24T18:59:29.015Z,8.10
2017-12-24T19:01:58.239Z,7.87
2017-12-24T19:04:26.412Z,7.70
2017-12-24T19:06:55.512Z,7.50
2017-12-24T19:09:23.686Z,7.60
2017-12-24T19:11:51.768Z,7.83
2017-12-24T19:14:19.891Z,8.50
2017-12-24T19:16:48.196Z,7.27
2017-12-24T19:19:16.347Z,8.00
2017-12-24T19:21:44.440Z,9.13
2017-12-24T19:24:12.592Z,8.20
2017-12-24T19:26:40.674Z,9.37
2017-12-24T19:29:09.583Z,9.37
2017-12-24T19:31:38.696Z,8.90
2017-12-24T19:34:10.408Z,10.77
2017-12-24T19:36:38.729Z,10.17
2017-12-24T19:39:06.872Z,8.23
2017-12-24T19:41:36.811Z,9.37
2017-12-24T19:44:05.004Z,8.70
2017-12-24T19:46:33.092Z,8.10
2017-12-24T19:49:01.246Z,8.80
2017-12-24T19:51:29.382Z,8.57
2017-12-24T19:53:58.307Z,8.70
2017-12-24T19:56:26.495Z,8.00
2017-12-24T19:58:54.626Z,9.10
2017-12-24T20:01:23.537Z,10.13
2017-12-24T20:03:51.647Z,8.60
2017-12-24T20:06:19.899Z,8.17
2017-12-24T20:08:47.999Z,7.97
2017-12-24T20:11:16.247Z,6.83
2017-12-24T20:13:45.466Z,7.10
2017-12-24T20:16:14.645Z,7.03
2017-12-24T20:18:42.782Z,7.37
2017-12-24T20:21:10.967Z,6.30
2017-12-24T20:23:39.847Z,6.40
2017-12-24T20:26:08.797Z,6.17
2017-12-24T20:28:36.922Z,6.80
2017-12-24T20:31:06.016Z,6.80
2017-12-24T20:33:35.173Z,6.00
2017-12-24T20:36:03.440Z,5.07
2017-12-24T20:38:31.677Z,5.20
2017-12-24T20:40:59.774Z,4.70
2017-12-24T20:43:27.939Z,5.13
2017-12-24T20:45:56.049Z,4.17
2017-12-24T20:48:24.140Z,4.20
2017-12-24T20:50:53.048Z,3.70
2017-12-24T20:53:21.244Z,4.13
2017-12-24T20:55:49.490Z,3.70
2017-12-24T20:58:18.415Z,3.73
2017-12-24T21:00:46.508Z,3.60
2017-12-24T21:03:14.751Z,3.47
2017-12-24T21:05:42.855Z,3.17
2017-12-24T21:08:10.985Z,2.90
2017-12-24T21:10:39.954Z,2.70
2017-12-24T21:13:08.193Z,2.53
2017-12-24T21:15:36.335Z,3.30
2017-12-24T21:18:04.540Z,5.50
2017-12-24T21:20:33.688Z,3.53
2017-12-24T21:23:01.766Z,3.03
2017-12-24T21:25:30.962Z,3.13
2017-12-24T21:28:00.973Z,2.37
2017-12-24T21:30:29.872Z,2.00
2017-12-24T21:35:59.691Z,2.30
2017-12-24T21:38:34.837Z,2.80
2017-12-24T21:41:04.409Z,2.50
2017-12-24T21:43:34.740Z,2.73
2017-12-24T21:46:07.156Z,2.27
2017-12-24T21:48:37.772Z,2.30
2017-12-24T21:51:06.272Z,2.20
2017-12-24T21:53:36.874Z,2.30
2017-12-24T21:56:05.670Z,2.20
2017-12-24T21:58:34.406Z,2.47
2017-12-24T22:01:03.462Z,2.20
2017-12-24T22:03:35.608Z,2.03
2017-12-24T22:06:07.000Z,2.30
2017-12-24T22:08:38.011Z,2.50
2017-12-24T22:11:06.491Z,5.50
2017-12-24T22:13:34.837Z,2.20
2017-12-24T22:16:24.903Z,1.90
2017-12-24T22:18:53.953Z,1.83
2017-12-24T22:21:23.255Z,1.93
2017-12-24T22:23:52.416Z,1.90
2017-12-24T22:26:20.915Z,2.17
2017-12-24T22:28:49.294Z,2.13
2017-12-24T22:31:18.228Z,1.97
2017-12-24T22:33:46.372Z,2.17
2017-12-24T22:36:15.331Z,1.93
2017-12-24T22:38:43.412Z,2.00
2017-12-24T22:41:11.807Z,2.17
2017-12-24T22:43:40.959Z,1.77
2017-12-24T22:46:09.145Z,1.83
2017-12-24T22:48:39.232Z,6.10
2017-12-24T22:51:08.475Z,7.10
2017-12-24T22:53:36.678Z,2.30
2017-12-24T22:56:04.891Z,5.50
2017-12-24T22:58:33.966Z,1.83
2017-12-24T23:01:02.218Z,2.00
2017-12-24T23:03:30.572Z,2.20
2017-12-24T23:05:59.712Z,2.20
2017-12-24T23:08:29.801Z,1.77
2017-12-24T23:10:57.925Z,2.27
2017-12-24T23:13:28.103Z,1.70
2017-12-24T23:15:56.230Z,2.10
2017-12-24T23:18:24.538Z,1.90
2017-12-24T23:20:56.596Z,2.50
2017-12-24T23:23:26.640Z,2.50
2017-12-24T23:25:55.443Z,2.87
2017-12-24T23:28:24.436Z,3.43
2017-12-24T23:30:53.412Z,6.10
2017-12-24T23:33:22.618Z,2.57
2017-12-24T23:35:51.541Z,10.40
2017-12-24T23:38:22.923Z,2.70
2017-12-24T23:40:52.712Z,2.70
2017-12-24T23:43:20.881Z,2.87
2017-12-24T23:45:49.063Z,3.13
2017-12-24T23:48:19.234Z,2.83
2017-12-24T23:50:49.207Z,3.00
2017-12-24T23:53:17.298Z,3.13
2017-12-24T23:55:45.481Z,3.10
2017-12-24T23:58:13.706Z,3.00
